Погода Квартянына неделю

Могилёвская область, Белоруссия

25 - 31 мая
  • 25мая
    Сегодня
    +11°
    +24°
    Ясно и безоблачно
    ВремяПогодаТемператураВлажностьДавлениеВетер, м/сВероятность осадков
    00:00Ясно и безоблачно+13°C56 %755 мм2.9 м/с2 %
    03:00Ясно и безоблачно+11°C60 %755 мм2.4 м/с2 %
    06:00Ясно и безоблачно+10°C65 %755 мм3.0 м/с2 %
    09:00Ясно и безоблачно+16°C55 %755 мм2.4 м/с2 %
    12:00Ясно и безоблачно+21°C48 %755 мм3.5 м/с2 %
    15:00Ясно и безоблачно+23°C40 %754 мм3.5 м/с2 %
    18:00Ясно и безоблачно+23°C40 %753 мм2.8 м/с2 %
    21:00Ясно и безоблачно+19°C65 %753 мм1.9 м/с2 %
  • 26мая
    Воскресенье
    +11°
    +24°
    Небольшая облачность
    ВремяПогодаТемператураВлажностьДавлениеВетер, м/сВероятность осадков
    00:00Ясно и безоблачно+15°C76 %753 мм2.1 м/с2 %
    03:00Ясно и безоблачно+11°C83 %753 мм1.8 м/с2 %
    06:00Облачно с прояснениями+12°C81 %753 мм1.8 м/с2 %
    09:00Небольшая облачность+19°C51 %753 мм1.1 м/с2 %
    12:00Облачно с прояснениями+23°C38 %753 мм2.5 м/с2 %
    15:00Небольшая облачность+23°C33 %752 мм2.3 м/с2 %
    18:00Практически безоблачно+25°C39 %752 мм2.8 м/с1 %
    21:00Ясно и безоблачно+18°C68 %752 мм1.5 м/с2 %
  • 27мая
    Понедельник
    +11°
    +26°
    Ясно и безоблачно
    ВремяПогодаТемператураВлажностьДавлениеВетер, м/сВероятность осадков
    00:00Ясно и безоблачно+16°C63 %752 мм1.2 м/с2 %
    03:00Ясно и безоблачно+13°C83 %752 мм1.4 м/с2 %
    06:00Ясно и безоблачно+13°C81 %752 мм1.6 м/с2 %
    09:00Ясно и безоблачно+20°C63 %753 мм1.3 м/с2 %
    12:00Практически безоблачно+22°C47 %752 мм2.6 м/с10 %
    15:00Ясно и безоблачно+24°C44 %752 мм2.8 м/с16 %
    18:00Небольшая облачность+24°C48 %751 мм2.5 м/с38 %
    21:00Практически безоблачно+20°C72 %751 мм1.1 м/с15 %
  • 28мая
    Вторник
    +14°
    +25°
    Облачно с прояснениями
    ВремяПогодаТемператураВлажностьДавлениеВетер, м/сВероятность осадков
    00:00Ясно и безоблачно+17°C87 %751 мм1.8 м/с2 %
    03:00Ясно и безоблачно+14°C91 %751 мм1.5 м/с2 %
    06:00Ясно и безоблачно+14°C89 %751 мм2.4 м/с2 %
    09:00Ясно и безоблачно+20°C68 %751 мм1.6 м/с2 %
    12:00Практически безоблачно+24°C54 %751 мм3.0 м/с11 %
    15:00Облачно с прояснениями+25°C50 %750 мм2.5 м/с6 %
    18:00Практически безоблачно+25°C52 %749 мм2.3 м/с8 %
    21:00Небольшая облачность, возможен дождь с грозой+20°C87 %749 мм2.2 м/с4 %
Мы используем cookies
Соглашаюсь